Hybart, Alabama
Current Conditions -  °F | °C
As of 12:32 AM on Monday 22 Dec 2014 (Local Time) from KGZH Reporting Station
Haze Haze  
Wind Chill: 55°   Ceiling: 200
Heat Index: 55°   Visibility: 4mi
Dew Point: 53°   Wind: 5mph
Humidity: 93%   Direction: 90°E
Pressure: 29.99"   Gusts: NA
Location:  31.7088°N, 87.4003°W
Report Text: KGZH 220632Z AUTO 09004KT 4SM BR OVC002 13/12 A2999 RMK AO2 T01280117
Loading
Personal Weather Stations






























Interactive Weather Map New forecast layout! Learn more

10-Day Weather Forecast

Advertisements
Track Severe Weather on mobile